Las Vegas, Nevada
Traffic Map
Current Weather Conditions
Las Vegas, Nevada
Clear
Clear
26°
Feels Like: 26°
Wind Chill: 26° Ceiling: Unl
Heat Index: 26° Visibility: 10mi
Dew Point: Wind: 7mph
Humidity: 32% Direction: 210° (SSW)
Pressure: 29.94in Gusts: 0mph
Raw Report DataKLAS 220956Z 21006KT 10SM CLR 26/08 A2994 RMK AO2 SLP114 T02560078
Traffic Incident Summary
Active as of:
Severity:
Category:
InformationThere was an issue retrieving the traffic information for this location. Please try a different location or try again shortly.
Advertisements
Track Severe Weather on mobile